sensor_id;sensor_type;location;lat;lon;timestamp;P1;durP1;ratioP1;P2;durP2;ratioP2
48524;SDS011;34316;51.514;-0.178;2022-07-23T00:00:38;9.48;;;6.10;;
48524;SDS011;34316;51.514;-0.178;2022-07-23T00:02:40;8.57;;;5.88;;
48524;SDS011;34316;51.514;-0.178;2022-07-23T00:04:42;10.52;;;6.18;;
48524;SDS011;34316;51.514;-0.178;2022-07-23T00:06:43;14.15;;;6.38;;
48524;SDS011;34316;51.514;-0.178;2022-07-23T00:08:45;16.25;;;6.55;;
48524;SDS011;34316;51.514;-0.178;2022-07-23T00:10:47;11.15;;;6.65;;
48524;SDS011;34316;51.514;-0.178;2022-07-23T00:12:48;8.52;;;5.75;;
48524;SDS011;34316;51.514;-0.178;2022-07-23T00:16:54;10.07;;;6.78;;
48524;SDS011;34316;51.514;-0.178;2022-07-23T00:18:55;10.48;;;6.65;;
48524;SDS011;34316;51.514;-0.178;2022-07-23T00:20:58;13.23;;;6.97;;
48524;SDS011;34316;51.514;-0.178;2022-07-23T00:22:59;16.02;;;6.68;;
48524;SDS011;34316;51.514;-0.178;2022-07-23T00:25:01;11.75;;;6.30;;
48524;SDS011;34316;51.514;-0.178;2022-07-23T00:27:23;11.15;;;6.03;;
48524;SDS011;34316;51.514;-0.178;2022-07-23T00:29:25;11.15;;;6.28;;
48524;SDS011;34316;51.514;-0.178;2022-07-23T00:31:26;8.52;;;6.07;;
48524;SDS011;34316;51.514;-0.178;2022-07-23T00:33:29;8.57;;;6.05;;
48524;SDS011;34316;51.514;-0.178;2022-07-23T00:35:35;8.00;;;6.00;;
48524;SDS011;34316;51.514;-0.178;2022-07-23T00:37:39;11.30;;;6.43;;
48524;SDS011;34316;51.514;-0.178;2022-07-23T00:39:40;9.50;;;5.82;;
48524;SDS011;34316;51.514;-0.178;2022-07-23T00:41:42;10.90;;;6.25;;
48524;SDS011;34316;51.514;-0.178;2022-07-23T00:43:44;10.15;;;5.78;;
48524;SDS011;34316;51.514;-0.178;2022-07-23T00:45:46;11.00;;;6.78;;
48524;SDS011;34316;51.514;-0.178;2022-07-23T00:47:47;8.75;;;6.40;;
48524;SDS011;34316;51.514;-0.178;2022-07-23T00:49:49;12.38;;;6.63;;
48524;SDS011;34316;51.514;-0.178;2022-07-23T00:51:51;12.23;;;6.20;;
48524;SDS011;34316;51.514;-0.178;2022-07-23T00:53:53;9.30;;;6.15;;
48524;SDS011;34316;51.514;-0.178;2022-07-23T00:55:55;10.30;;;5.82;;
48524;SDS011;34316;51.514;-0.178;2022-07-23T00:57:56;12.90;;;6.47;;
48524;SDS011;34316;51.514;-0.178;2022-07-23T00:59:58;9.02;;;5.82;;
48524;SDS011;34316;51.514;-0.178;2022-07-23T01:02:00;13.43;;;6.05;;
48524;SDS011;34316;51.514;-0.178;2022-07-23T01:04:02;12.38;;;6.65;;
48524;SDS011;34316;51.514;-0.178;2022-07-23T01:06:04;10.00;;;6.72;;
48524;SDS011;34316;51.514;-0.178;2022-07-23T01:08:06;12.95;;;6.53;;
48524;SDS011;34316;51.514;-0.178;2022-07-23T01:10:08;7.97;;;6.32;;
48524;SDS011;34316;51.514;-0.178;2022-07-23T01:12:30;12.15;;;6.57;;
48524;SDS011;34316;51.514;-0.178;2022-07-23T01:14:32;11.57;;;6.70;;
48524;SDS011;34316;51.514;-0.178;2022-07-23T01:16:33;9.00;;;6.80;;
48524;SDS011;34316;51.514;-0.178;2022-07-23T01:18:35;16.05;;;6.80;;
48524;SDS011;34316;51.514;-0.178;2022-07-23T01:20:37;8.68;;;6.53;;
48524;SDS011;34316;51.514;-0.178;2022-07-23T01:22:39;9.82;;;6.68;;
48524;SDS011;34316;51.514;-0.178;2022-07-23T01:24:40;9.60;;;6.28;;
48524;SDS011;34316;51.514;-0.178;2022-07-23T01:26:43;11.60;;;6.80;;
48524;SDS011;34316;51.514;-0.178;2022-07-23T01:28:46;12.63;;;6.70;;
48524;SDS011;34316;51.514;-0.178;2022-07-23T01:30:47;15.13;;;7.47;;
48524;SDS011;34316;51.514;-0.178;2022-07-23T01:32:49;11.07;;;6.95;;
48524;SDS011;34316;51.514;-0.178;2022-07-23T01:34:51;8.43;;;6.43;;
48524;SDS011;34316;51.514;-0.178;2022-07-23T01:36:53;15.40;;;7.40;;
48524;SDS011;34316;51.514;-0.178;2022-07-23T01:38:55;11.50;;;7.20;;
48524;SDS011;34316;51.514;-0.178;2022-07-23T01:40:56;10.98;;;6.68;;
48524;SDS011;34316;51.514;-0.178;2022-07-23T01:42:58;11.93;;;6.97;;
48524;SDS011;34316;51.514;-0.178;2022-07-23T01:45:01;13.00;;;6.15;;
48524;SDS011;34316;51.514;-0.178;2022-07-23T01:47:03;11.00;;;6.53;;
48524;SDS011;34316;51.514;-0.178;2022-07-23T01:49:04;8.82;;;6.57;;
48524;SDS011;34316;51.514;-0.178;2022-07-23T01:51:07;10.57;;;6.60;;
48524;SDS011;34316;51.514;-0.178;2022-07-23T01:53:09;9.07;;;6.25;;
48524;SDS011;34316;51.514;-0.178;2022-07-23T01:55:10;8.73;;;6.20;;
48524;SDS011;34316;51.514;-0.178;2022-07-23T01:57:19;13.05;;;6.28;;
48524;SDS011;34316;51.514;-0.178;2022-07-23T01:59:21;6.65;;;4.78;;
48524;SDS011;34316;51.514;-0.178;2022-07-23T02:01:23;12.65;;;5.97;;
48524;SDS011;34316;51.514;-0.178;2022-07-23T02:03:25;9.27;;;5.50;;
48524;SDS011;34316;51.514;-0.178;2022-07-23T02:05:28;11.75;;;6.30;;
48524;SDS011;34316;51.514;-0.178;2022-07-23T02:07:30;9.13;;;6.00;;
48524;SDS011;34316;51.514;-0.178;2022-07-23T02:09:35;11.25;;;6.13;;
48524;SDS011;34316;51.514;-0.178;2022-07-23T02:11:36;14.38;;;5.65;;
48524;SDS011;34316;51.514;-0.178;2022-07-23T02:13:38;9.18;;;5.60;;
48524;SDS011;34316;51.514;-0.178;2022-07-23T02:15:40;9.95;;;5.15;;
48524;SDS011;34316;51.514;-0.178;2022-07-23T02:17:42;11.27;;;5.65;;
48524;SDS011;34316;51.514;-0.178;2022-07-23T02:19:43;8.80;;;6.13;;
48524;SDS011;34316;51.514;-0.178;2022-07-23T02:21:45;12.65;;;5.65;;
48524;SDS011;34316;51.514;-0.178;2022-07-23T02:23:47;19.25;;;6.68;;
48524;SDS011;34316;51.514;-0.178;2022-07-23T02:25:49;12.13;;;6.30;;
48524;SDS011;34316;51.514;-0.178;2022-07-23T02:27:50;8.32;;;6.10;;
48524;SDS011;34316;51.514;-0.178;2022-07-23T02:29:52;11.57;;;5.75;;
48524;SDS011;34316;51.514;-0.178;2022-07-23T02:31:54;11.10;;;5.88;;
48524;SDS011;34316;51.514;-0.178;2022-07-23T02:33:56;8.38;;;5.97;;
48524;SDS011;34316;51.514;-0.178;2022-07-23T02:35:58;11.75;;;6.00;;
48524;SDS011;34316;51.514;-0.178;2022-07-23T02:37:59;9.80;;;6.45;;
48524;SDS011;34316;51.514;-0.178;2022-07-23T02:40:01;12.30;;;5.80;;
48524;SDS011;34316;51.514;-0.178;2022-07-23T02:42:03;14.32;;;6.00;;
48524;SDS011;34316;51.514;-0.178;2022-07-23T02:44:05;11.13;;;5.40;;
48524;SDS011;34316;51.514;-0.178;2022-07-23T02:46:07;13.68;;;5.53;;
48524;SDS011;34316;51.514;-0.178;2022-07-23T02:48:09;11.77;;;6.05;;
48524;SDS011;34316;51.514;-0.178;2022-07-23T02:50:13;11.73;;;6.57;;
48524;SDS011;34316;51.514;-0.178;2022-07-23T02:52:15;9.60;;;6.10;;
48524;SDS011;34316;51.514;-0.178;2022-07-23T02:54:17;11.55;;;6.40;;
48524;SDS011;34316;51.514;-0.178;2022-07-23T02:56:19;9.70;;;5.60;;
48524;SDS011;34316;51.514;-0.178;2022-07-23T02:58:20;12.15;;;5.95;;
48524;SDS011;34316;51.514;-0.178;2022-07-23T03:00:22;7.50;;;5.32;;
48524;SDS011;34316;51.514;-0.178;2022-07-23T03:02:24;13.50;;;6.05;;
48524;SDS011;34316;51.514;-0.178;2022-07-23T03:04:26;13.40;;;6.10;;
48524;SDS011;34316;51.514;-0.178;2022-07-23T03:06:28;10.38;;;6.30;;
48524;SDS011;34316;51.514;-0.178;2022-07-23T03:08:29;11.15;;;5.85;;
48524;SDS011;34316;51.514;-0.178;2022-07-23T03:10:31;8.05;;;5.60;;
48524;SDS011;34316;51.514;-0.178;2022-07-23T03:12:33;9.05;;;5.75;;
48524;SDS011;34316;51.514;-0.178;2022-07-23T03:14:35;12.30;;;5.45;;
48524;SDS011;34316;51.514;-0.178;2022-07-23T03:16:37;11.88;;;5.63;;
48524;SDS011;34316;51.514;-0.178;2022-07-23T03:18:38;7.03;;;5.18;;
48524;SDS011;34316;51.514;-0.178;2022-07-23T03:20:41;13.27;;;5.53;;
48524;SDS011;34316;51.514;-0.178;2022-07-23T03:22:43;8.13;;;5.60;;
48524;SDS011;34316;51.514;-0.178;2022-07-23T03:24:44;9.23;;;5.65;;
48524;SDS011;34316;51.514;-0.178;2022-07-23T03:26:55;9.95;;;5.35;;
48524;SDS011;34316;51.514;-0.178;2022-07-23T03:28:57;11.93;;;6.05;;
48524;SDS011;34316;51.514;-0.178;2022-07-23T03:30:59;12.43;;;5.57;;
48524;SDS011;34316;51.514;-0.178;2022-07-23T03:33:01;11.82;;;5.80;;
48524;SDS011;34316;51.514;-0.178;2022-07-23T03:35:03;11.75;;;6.32;;
48524;SDS011;34316;51.514;-0.178;2022-07-23T03:37:07;10.05;;;5.95;;
48524;SDS011;34316;51.514;-0.178;2022-07-23T03:39:08;9.93;;;6.68;;
48524;SDS011;34316;51.514;-0.178;2022-07-23T03:41:14;7.78;;;6.03;;
48524;SDS011;34316;51.514;-0.178;2022-07-23T03:43:16;9.80;;;6.88;;
48524;SDS011;34316;51.514;-0.178;2022-07-23T03:45:17;10.63;;;7.32;;
48524;SDS011;34316;51.514;-0.178;2022-07-23T03:47:19;9.63;;;7.47;;
48524;SDS011;34316;51.514;-0.178;2022-07-23T03:51:24;13.45;;;7.55;;
48524;SDS011;34316;51.514;-0.178;2022-07-23T03:53:26;12.20;;;7.03;;
48524;SDS011;34316;51.514;-0.178;2022-07-23T03:55:28;16.40;;;6.97;;
48524;SDS011;34316;51.514;-0.178;2022-07-23T03:57:30;12.20;;;7.78;;
48524;SDS011;34316;51.514;-0.178;2022-07-23T03:59:31;14.02;;;8.10;;
48524;SDS011;34316;51.514;-0.178;2022-07-23T04:01:33;13.43;;;7.57;;
48524;SDS011;34316;51.514;-0.178;2022-07-23T04:03:35;12.77;;;7.03;;
48524;SDS011;34316;51.514;-0.178;2022-07-23T04:05:36;11.38;;;6.95;;
48524;SDS011;34316;51.514;-0.178;2022-07-23T04:07:38;12.73;;;6.85;;
48524;SDS011;34316;51.514;-0.178;2022-07-23T04:09:41;10.35;;;6.75;;
48524;SDS011;34316;51.514;-0.178;2022-07-23T04:11:46;15.85;;;7.30;;
48524;SDS011;34316;51.514;-0.178;2022-07-23T04:13:48;10.50;;;6.82;;
48524;SDS011;34316;51.514;-0.178;2022-07-23T04:15:50;11.00;;;6.47;;
48524;SDS011;34316;51.514;-0.178;2022-07-23T04:17:52;12.50;;;6.75;;
48524;SDS011;34316;51.514;-0.178;2022-07-23T04:19:53;15.68;;;7.18;;
48524;SDS011;34316;51.514;-0.178;2022-07-23T04:21:55;17.80;;;7.55;;
48524;SDS011;34316;51.514;-0.178;2022-07-23T04:23:58;11.95;;;7.53;;
48524;SDS011;34316;51.514;-0.178;2022-07-23T04:26:00;14.20;;;7.63;;
48524;SDS011;34316;51.514;-0.178;2022-07-23T04:28:02;12.60;;;7.07;;
48524;SDS011;34316;51.514;-0.178;2022-07-23T04:30:03;15.85;;;6.57;;
48524;SDS011;34316;51.514;-0.178;2022-07-23T04:32:06;8.82;;;6.28;;
48524;SDS011;34316;51.514;-0.178;2022-07-23T04:34:07;13.63;;;7.68;;
48524;SDS011;34316;51.514;-0.178;2022-07-23T04:36:09;13.15;;;6.75;;
48524;SDS011;34316;51.514;-0.178;2022-07-23T04:38:11;10.45;;;6.70;;
48524;SDS011;34316;51.514;-0.178;2022-07-23T04:40:13;9.48;;;6.53;;
48524;SDS011;34316;51.514;-0.178;2022-07-23T04:42:14;10.82;;;6.47;;
48524;SDS011;34316;51.514;-0.178;2022-07-23T04:44:16;10.85;;;6.88;;
48524;SDS011;34316;51.514;-0.178;2022-07-23T04:46:18;8.88;;;6.03;;
48524;SDS011;34316;51.514;-0.178;2022-07-23T04:48:20;11.10;;;6.93;;
48524;SDS011;34316;51.514;-0.178;2022-07-23T04:50:21;8.88;;;6.25;;
48524;SDS011;34316;51.514;-0.178;2022-07-23T04:52:23;8.40;;;6.50;;
48524;SDS011;34316;51.514;-0.178;2022-07-23T04:54:25;11.63;;;6.18;;
48524;SDS011;34316;51.514;-0.178;2022-07-23T04:56:27;13.90;;;6.72;;
48524;SDS011;34316;51.514;-0.178;2022-07-23T04:58:29;9.93;;;6.32;;
48524;SDS011;34316;51.514;-0.178;2022-07-23T05:00:31;12.57;;;6.85;;
48524;SDS011;34316;51.514;-0.178;2022-07-23T05:02:32;11.07;;;6.57;;
48524;SDS011;34316;51.514;-0.178;2022-07-23T05:04:34;10.38;;;7.18;;
48524;SDS011;34316;51.514;-0.178;2022-07-23T05:06:36;11.38;;;7.25;;
48524;SDS011;34316;51.514;-0.178;2022-07-23T05:08:38;14.70;;;7.00;;
48524;SDS011;34316;51.514;-0.178;2022-07-23T05:10:39;12.27;;;6.90;;
48524;SDS011;34316;51.514;-0.178;2022-07-23T05:12:41;9.70;;;6.75;;
48524;SDS011;34316;51.514;-0.178;2022-07-23T05:14:43;11.70;;;7.05;;
48524;SDS011;34316;51.514;-0.178;2022-07-23T05:16:44;14.88;;;7.28;;
48524;SDS011;34316;51.514;-0.178;2022-07-23T05:18:46;14.48;;;7.90;;
48524;SDS011;34316;51.514;-0.178;2022-07-23T05:20:48;13.25;;;7.32;;
48524;SDS011;34316;51.514;-0.178;2022-07-23T05:22:49;11.05;;;7.93;;
48524;SDS011;34316;51.514;-0.178;2022-07-23T05:24:51;13.02;;;7.63;;
48524;SDS011;34316;51.514;-0.178;2022-07-23T05:26:53;10.13;;;7.18;;
48524;SDS011;34316;51.514;-0.178;2022-07-23T05:28:55;11.35;;;7.35;;
48524;SDS011;34316;51.514;-0.178;2022-07-23T05:30:56;19.38;;;7.30;;
48524;SDS011;34316;51.514;-0.178;2022-07-23T05:32:58;12.98;;;7.53;;
48524;SDS011;34316;51.514;-0.178;2022-07-23T05:35:00;13.27;;;7.60;;
48524;SDS011;34316;51.514;-0.178;2022-07-23T05:37:02;14.48;;;7.13;;
48524;SDS011;34316;51.514;-0.178;2022-07-23T05:39:04;15.05;;;7.32;;
48524;SDS011;34316;51.514;-0.178;2022-07-23T05:41:06;13.88;;;7.18;;
48524;SDS011;34316;51.514;-0.178;2022-07-23T05:43:08;12.70;;;7.35;;
48524;SDS011;34316;51.514;-0.178;2022-07-23T05:45:10;12.65;;;7.93;;
48524;SDS011;34316;51.514;-0.178;2022-07-23T05:47:12;8.65;;;6.45;;
48524;SDS011;34316;51.514;-0.178;2022-07-23T05:49:14;9.32;;;6.97;;
48524;SDS011;34316;51.514;-0.178;2022-07-23T05:51:21;12.38;;;7.30;;
48524;SDS011;34316;51.514;-0.178;2022-07-23T05:53:24;13.57;;;7.15;;
48524;SDS011;34316;51.514;-0.178;2022-07-23T05:55:25;14.30;;;8.02;;
48524;SDS011;34316;51.514;-0.178;2022-07-23T05:57:30;9.27;;;6.85;;
48524;SDS011;34316;51.514;-0.178;2022-07-23T05:59:31;12.95;;;6.78;;
48524;SDS011;34316;51.514;-0.178;2022-07-23T06:01:33;11.60;;;7.25;;
48524;SDS011;34316;51.514;-0.178;2022-07-23T06:03:35;8.85;;;6.65;;
48524;SDS011;34316;51.514;-0.178;2022-07-23T06:05:37;15.10;;;7.15;;
48524;SDS011;34316;51.514;-0.178;2022-07-23T06:07:38;17.38;;;7.60;;
48524;SDS011;34316;51.514;-0.178;2022-07-23T06:09:40;13.60;;;7.78;;
48524;SDS011;34316;51.514;-0.178;2022-07-23T06:11:42;9.60;;;7.03;;
48524;SDS011;34316;51.514;-0.178;2022-07-23T06:13:44;13.48;;;7.05;;
48524;SDS011;34316;51.514;-0.178;2022-07-23T06:15:45;14.48;;;7.85;;
48524;SDS011;34316;51.514;-0.178;2022-07-23T06:17:47;11.23;;;7.40;;
48524;SDS011;34316;51.514;-0.178;2022-07-23T06:19:49;11.63;;;7.18;;
48524;SDS011;34316;51.514;-0.178;2022-07-23T06:21:52;11.52;;;7.70;;
48524;SDS011;34316;51.514;-0.178;2022-07-23T06:23:54;13.75;;;7.30;;
48524;SDS011;34316;51.514;-0.178;2022-07-23T06:25:56;10.02;;;7.32;;
48524;SDS011;34316;51.514;-0.178;2022-07-23T06:27:57;10.07;;;6.78;;
48524;SDS011;34316;51.514;-0.178;2022-07-23T06:29:59;12.50;;;7.20;;
48524;SDS011;34316;51.514;-0.178;2022-07-23T06:32:01;10.50;;;7.35;;
48524;SDS011;34316;51.514;-0.178;2022-07-23T06:34:02;18.98;;;7.10;;
48524;SDS011;34316;51.514;-0.178;2022-07-23T06:36:04;12.80;;;7.40;;
48524;SDS011;34316;51.514;-0.178;2022-07-23T06:38:07;17.73;;;7.90;;
48524;SDS011;34316;51.514;-0.178;2022-07-23T06:40:09;15.35;;;6.82;;
48524;SDS011;34316;51.514;-0.178;2022-07-23T06:42:11;11.18;;;6.82;;
48524;SDS011;34316;51.514;-0.178;2022-07-23T06:44:13;15.63;;;7.70;;
48524;SDS011;34316;51.514;-0.178;2022-07-23T06:46:15;14.05;;;7.15;;
48524;SDS011;34316;51.514;-0.178;2022-07-23T06:48:17;14.07;;;7.63;;
48524;SDS011;34316;51.514;-0.178;2022-07-23T06:50:18;14.13;;;7.07;;
48524;SDS011;34316;51.514;-0.178;2022-07-23T06:52:20;12.80;;;7.47;;
48524;SDS011;34316;51.514;-0.178;2022-07-23T06:54:22;14.43;;;7.40;;
48524;SDS011;34316;51.514;-0.178;2022-07-23T06:56:23;9.93;;;7.18;;
48524;SDS011;34316;51.514;-0.178;2022-07-23T06:58:25;12.43;;;6.72;;
48524;SDS011;34316;51.514;-0.178;2022-07-23T07:00:27;10.60;;;7.28;;
48524;SDS011;34316;51.514;-0.178;2022-07-23T07:02:29;14.23;;;7.13;;
48524;SDS011;34316;51.514;-0.178;2022-07-23T07:04:30;16.05;;;7.68;;
48524;SDS011;34316;51.514;-0.178;2022-07-23T07:06:33;9.90;;;6.82;;
48524;SDS011;34316;51.514;-0.178;2022-07-23T07:08:34;11.20;;;7.57;;
48524;SDS011;34316;51.514;-0.178;2022-07-23T07:10:36;15.15;;;7.53;;
48524;SDS011;34316;51.514;-0.178;2022-07-23T07:12:38;13.25;;;7.70;;
48524;SDS011;34316;51.514;-0.178;2022-07-23T07:14:40;12.57;;;7.68;;
48524;SDS011;34316;51.514;-0.178;2022-07-23T07:16:41;9.68;;;6.45;;
48524;SDS011;34316;51.514;-0.178;2022-07-23T07:18:43;7.97;;;6.50;;
48524;SDS011;34316;51.514;-0.178;2022-07-23T07:20:45;14.07;;;7.18;;
48524;SDS011;34316;51.514;-0.178;2022-07-23T07:22:46;15.85;;;7.05;;
48524;SDS011;34316;51.514;-0.178;2022-07-23T07:24:48;11.75;;;6.82;;
48524;SDS011;34316;51.514;-0.178;2022-07-23T07:26:50;12.32;;;6.85;;
48524;SDS011;34316;51.514;-0.178;2022-07-23T07:28:51;15.25;;;7.70;;
48524;SDS011;34316;51.514;-0.178;2022-07-23T07:30:53;10.20;;;7.20;;
48524;SDS011;34316;51.514;-0.178;2022-07-23T07:32:55;11.90;;;6.80;;
48524;SDS011;34316;51.514;-0.178;2022-07-23T07:34:58;12.00;;;6.93;;
48524;SDS011;34316;51.514;-0.178;2022-07-23T07:37:00;13.77;;;7.07;;
48524;SDS011;34316;51.514;-0.178;2022-07-23T07:39:02;14.15;;;8.07;;
48524;SDS011;34316;51.514;-0.178;2022-07-23T07:41:08;11.45;;;7.22;;
48524;SDS011;34316;51.514;-0.178;2022-07-23T07:43:11;14.93;;;7.78;;
48524;SDS011;34316;51.514;-0.178;2022-07-23T07:45:13;10.98;;;7.07;;
48524;SDS011;34316;51.514;-0.178;2022-07-23T07:47:14;10.70;;;6.93;;
48524;SDS011;34316;51.514;-0.178;2022-07-23T07:49:16;14.20;;;6.78;;
48524;SDS011;34316;51.514;-0.178;2022-07-23T07:51:22;13.98;;;7.15;;
48524;SDS011;34316;51.514;-0.178;2022-07-23T07:57:52;13.23;;;6.70;;
48524;SDS011;34316;51.514;-0.178;2022-07-23T07:59:53;14.82;;;7.32;;
48524;SDS011;34316;51.514;-0.178;2022-07-23T08:01:57;10.27;;;7.35;;
48524;SDS011;34316;51.514;-0.178;2022-07-23T08:03:58;15.65;;;7.57;;
48524;SDS011;34316;51.514;-0.178;2022-07-23T08:06:01;8.18;;;6.57;;
48524;SDS011;34316;51.514;-0.178;2022-07-23T08:08:02;11.70;;;6.80;;
48524;SDS011;34316;51.514;-0.178;2022-07-23T08:10:05;11.25;;;7.20;;
48524;SDS011;34316;51.514;-0.178;2022-07-23T08:12:10;13.80;;;9.05;;
48524;SDS011;34316;51.514;-0.178;2022-07-23T08:14:11;12.02;;;6.90;;
48524;SDS011;34316;51.514;-0.178;2022-07-23T08:16:13;9.63;;;7.15;;
48524;SDS011;34316;51.514;-0.178;2022-07-23T08:18:15;9.02;;;6.18;;
48524;SDS011;34316;51.514;-0.178;2022-07-23T08:20:18;13.73;;;7.40;;
48524;SDS011;34316;51.514;-0.178;2022-07-23T08:22:21;11.35;;;6.47;;
48524;SDS011;34316;51.514;-0.178;2022-07-23T08:24:22;12.60;;;6.70;;
48524;SDS011;34316;51.514;-0.178;2022-07-23T08:26:24;12.68;;;6.78;;
48524;SDS011;34316;51.514;-0.178;2022-07-23T08:28:26;13.15;;;7.18;;
48524;SDS011;34316;51.514;-0.178;2022-07-23T08:30:28;12.73;;;6.80;;
48524;SDS011;34316;51.514;-0.178;2022-07-23T08:32:31;11.70;;;6.28;;
48524;SDS011;34316;51.514;-0.178;2022-07-23T08:34:45;15.45;;;7.07;;
48524;SDS011;34316;51.514;-0.178;2022-07-23T08:36:47;18.50;;;7.85;;
48524;SDS011;34316;51.514;-0.178;2022-07-23T08:38:49;12.63;;;7.65;;
48524;SDS011;34316;51.514;-0.178;2022-07-23T08:40:51;11.52;;;7.05;;
48524;SDS011;34316;51.514;-0.178;2022-07-23T08:42:54;13.02;;;6.30;;
48524;SDS011;34316;51.514;-0.178;2022-07-23T08:44:56;11.25;;;6.45;;
48524;SDS011;34316;51.514;-0.178;2022-07-23T08:46:58;11.88;;;6.65;;
48524;SDS011;34316;51.514;-0.178;2022-07-23T08:49:00;15.70;;;7.30;;
48524;SDS011;34316;51.514;-0.178;2022-07-23T08:51:03;16.83;;;7.25;;
48524;SDS011;34316;51.514;-0.178;2022-07-23T08:53:07;13.13;;;7.50;;
48524;SDS011;34316;51.514;-0.178;2022-07-23T08:55:10;12.07;;;7.07;;
48524;SDS011;34316;51.514;-0.178;2022-07-23T08:57:11;16.58;;;7.25;;
48524;SDS011;34316;51.514;-0.178;2022-07-23T08:59:13;15.35;;;7.25;;
48524;SDS011;34316;51.514;-0.178;2022-07-23T09:01:15;17.63;;;7.70;;
48524;SDS011;34316;51.514;-0.178;2022-07-23T09:03:17;12.60;;;7.55;;
48524;SDS011;34316;51.514;-0.178;2022-07-23T09:05:20;13.68;;;7.32;;
48524;SDS011;34316;51.514;-0.178;2022-07-23T09:07:22;13.80;;;7.40;;
48524;SDS011;34316;51.514;-0.178;2022-07-23T09:09:24;18.92;;;7.38;;
48524;SDS011;34316;51.514;-0.178;2022-07-23T09:11:31;11.25;;;7.28;;
48524;SDS011;34316;51.514;-0.178;2022-07-23T09:13:37;14.60;;;6.97;;
48524;SDS011;34316;51.514;-0.178;2022-07-23T09:15:48;11.13;;;6.60;;
48524;SDS011;34316;51.514;-0.178;2022-07-23T09:17:54;12.57;;;6.72;;
48524;SDS011;34316;51.514;-0.178;2022-07-23T09:20:02;12.60;;;7.03;;
48524;SDS011;34316;51.514;-0.178;2022-07-23T09:24:28;11.02;;;6.53;;
48524;SDS011;34316;51.514;-0.178;2022-07-23T09:26:40;10.38;;;6.50;;
48524;SDS011;34316;51.514;-0.178;2022-07-23T09:31:05;15.18;;;7.50;;
48524;SDS011;34316;51.514;-0.178;2022-07-23T09:33:08;12.57;;;6.35;;
48524;SDS011;34316;51.514;-0.178;2022-07-23T09:35:11;9.63;;;6.50;;
48524;SDS011;34316;51.514;-0.178;2022-07-23T09:37:14;9.57;;;6.15;;
48524;SDS011;34316;51.514;-0.178;2022-07-23T09:39:24;14.13;;;6.40;;
48524;SDS011;34316;51.514;-0.178;2022-07-23T09:41:33;11.68;;;6.85;;
48524;SDS011;34316;51.514;-0.178;2022-07-23T09:43:40;11.18;;;6.68;;
48524;SDS011;34316;51.514;-0.178;2022-07-23T09:45:41;13.13;;;6.72;;
48524;SDS011;34316;51.514;-0.178;2022-07-23T09:47:43;14.93;;;6.60;;
48524;SDS011;34316;51.514;-0.178;2022-07-23T09:52:04;10.32;;;6.93;;
48524;SDS011;34316;51.514;-0.178;2022-07-23T09:54:06;15.30;;;7.30;;
48524;SDS011;34316;51.514;-0.178;2022-07-23T09:56:22;16.88;;;6.22;;
48524;SDS011;34316;51.514;-0.178;2022-07-23T09:58:28;13.95;;;5.78;;
48524;SDS011;34316;51.514;-0.178;2022-07-23T10:00:31;13.07;;;6.72;;
48524;SDS011;34316;51.514;-0.178;2022-07-23T10:04:35;12.65;;;6.75;;
48524;SDS011;34316;51.514;-0.178;2022-07-23T10:06:39;9.45;;;5.97;;
48524;SDS011;34316;51.514;-0.178;2022-07-23T10:08:41;12.88;;;6.50;;
48524;SDS011;34316;51.514;-0.178;2022-07-23T10:10:44;7.18;;;5.80;;
48524;SDS011;34316;51.514;-0.178;2022-07-23T10:12:47;11.98;;;5.57;;
48524;SDS011;34316;51.514;-0.178;2022-07-23T10:15:07;9.85;;;5.28;;
48524;SDS011;34316;51.514;-0.178;2022-07-23T10:17:09;13.07;;;6.00;;
48524;SDS011;34316;51.514;-0.178;2022-07-23T10:19:11;10.73;;;5.55;;
48524;SDS011;34316;51.514;-0.178;2022-07-23T10:21:16;9.23;;;5.78;;
48524;SDS011;34316;51.514;-0.178;2022-07-23T10:23:51;7.63;;;5.28;;
48524;SDS011;34316;51.514;-0.178;2022-07-23T10:37:30;15.02;;;6.07;;
48524;SDS011;34316;51.514;-0.178;2022-07-23T10:39:35;13.90;;;5.20;;
48524;SDS011;34316;51.514;-0.178;2022-07-23T10:43:40;10.10;;;5.53;;
48524;SDS011;34316;51.514;-0.178;2022-07-23T10:45:42;12.50;;;5.32;;
48524;SDS011;34316;51.514;-0.178;2022-07-23T10:47:44;11.70;;;5.20;;
48524;SDS011;34316;51.514;-0.178;2022-07-23T10:49:47;9.52;;;4.68;;
48524;SDS011;34316;51.514;-0.178;2022-07-23T10:52:23;11.77;;;5.40;;
48524;SDS011;34316;51.514;-0.178;2022-07-23T10:54:27;13.57;;;5.30;;
48524;SDS011;34316;51.514;-0.178;2022-07-23T10:59:07;9.55;;;5.45;;
48524;SDS011;34316;51.514;-0.178;2022-07-23T11:01:42;11.07;;;4.97;;
48524;SDS011;34316;51.514;-0.178;2022-07-23T11:03:38;15.60;;;5.63;;
48524;SDS011;34316;51.514;-0.178;2022-07-23T11:05:44;12.02;;;4.93;;
48524;SDS011;34316;51.514;-0.178;2022-07-23T11:10:07;10.50;;;5.00;;
48524;SDS011;34316;51.514;-0.178;2022-07-23T11:12:48;14.38;;;5.38;;
48524;SDS011;34316;51.514;-0.178;2022-07-23T11:17:19;8.13;;;4.53;;
48524;SDS011;34316;51.514;-0.178;2022-07-23T11:19:21;9.00;;;4.45;;
48524;SDS011;34316;51.514;-0.178;2022-07-23T11:23:33;13.15;;;4.93;;
48524;SDS011;34316;51.514;-0.178;2022-07-23T11:25:59;12.48;;;4.88;;
48524;SDS011;34316;51.514;-0.178;2022-07-23T11:28:11;10.90;;;4.88;;
48524;SDS011;34316;51.514;-0.178;2022-07-23T11:32:30;15.40;;;4.90;;
48524;SDS011;34316;51.514;-0.178;2022-07-23T11:34:39;12.00;;;5.55;;
48524;SDS011;34316;51.514;-0.178;2022-07-23T11:36:48;12.32;;;4.55;;
48524;SDS011;34316;51.514;-0.178;2022-07-23T11:38:51;8.90;;;4.63;;
48524;SDS011;34316;51.514;-0.178;2022-07-23T11:40:54;9.73;;;5.13;;
48524;SDS011;34316;51.514;-0.178;2022-07-23T11:43:00;13.38;;;4.55;;
48524;SDS011;34316;51.514;-0.178;2022-07-23T11:45:04;14.63;;;5.03;;
48524;SDS011;34316;51.514;-0.178;2022-07-23T11:47:08;10.65;;;4.40;;
48524;SDS011;34316;51.514;-0.178;2022-07-23T11:49:10;17.50;;;4.80;;
48524;SDS011;34316;51.514;-0.178;2022-07-23T11:51:24;16.52;;;4.63;;
48524;SDS011;34316;51.514;-0.178;2022-07-23T11:53:27;14.23;;;4.72;;
48524;SDS011;34316;51.514;-0.178;2022-07-23T11:55:29;14.68;;;4.20;;
48524;SDS011;34316;51.514;-0.178;2022-07-23T11:57:35;15.05;;;4.28;;
48524;SDS011;34316;51.514;-0.178;2022-07-23T11:59:39;14.75;;;5.18;;
48524;SDS011;34316;51.514;-0.178;2022-07-23T12:01:55;9.97;;;4.40;;
48524;SDS011;34316;51.514;-0.178;2022-07-23T12:04:00;15.48;;;4.55;;
48524;SDS011;34316;51.514;-0.178;2022-07-23T12:06:02;11.40;;;4.00;;
48524;SDS011;34316;51.514;-0.178;2022-07-23T12:08:05;17.50;;;5.05;;
48524;SDS011;34316;51.514;-0.178;2022-07-23T12:12:19;10.32;;;4.13;;
48524;SDS011;34316;51.514;-0.178;2022-07-23T12:14:21;13.25;;;3.97;;
48524;SDS011;34316;51.514;-0.178;2022-07-23T12:16:23;13.48;;;4.25;;
48524;SDS011;34316;51.514;-0.178;2022-07-23T12:18:25;22.90;;;5.43;;
48524;SDS011;34316;51.514;-0.178;2022-07-23T12:20:32;14.40;;;4.50;;
48524;SDS011;34316;51.514;-0.178;2022-07-23T12:22:39;10.65;;;4.38;;
48524;SDS011;34316;51.514;-0.178;2022-07-23T12:24:52;13.93;;;4.50;;
48524;SDS011;34316;51.514;-0.178;2022-07-23T12:27:10;11.80;;;4.30;;
48524;SDS011;34316;51.514;-0.178;2022-07-23T12:29:12;14.88;;;4.93;;
48524;SDS011;34316;51.514;-0.178;2022-07-23T12:31:14;14.20;;;4.57;;
48524;SDS011;34316;51.514;-0.178;2022-07-23T12:35:30;21.00;;;5.18;;
48524;SDS011;34316;51.514;-0.178;2022-07-23T12:37:43;15.48;;;4.57;;
48524;SDS011;34316;51.514;-0.178;2022-07-23T12:39:46;17.40;;;4.70;;
48524;SDS011;34316;51.514;-0.178;2022-07-23T12:41:51;15.38;;;4.53;;
48524;SDS011;34316;51.514;-0.178;2022-07-23T12:43:54;11.80;;;4.55;;
48524;SDS011;34316;51.514;-0.178;2022-07-23T12:46:04;14.45;;;4.78;;
48524;SDS011;34316;51.514;-0.178;2022-07-23T12:48:07;15.95;;;5.00;;
48524;SDS011;34316;51.514;-0.178;2022-07-23T12:50:29;13.90;;;5.13;;